sensor_id;sensor_type;location;lat;lon;timestamp;temperature;humidity
12700;DHT22;6414;49.570;6.060;2022-07-23T00:00:53;18.30;99.90
12700;DHT22;6414;49.570;6.060;2022-07-23T00:03:38;18.30;99.90
12700;DHT22;6414;49.570;6.060;2022-07-23T00:06:24;18.40;99.90
12700;DHT22;6414;49.570;6.060;2022-07-23T00:09:09;18.40;99.90
12700;DHT22;6414;49.570;6.060;2022-07-23T00:11:55;18.40;99.90
12700;DHT22;6414;49.570;6.060;2022-07-23T00:14:40;18.20;99.90
12700;DHT22;6414;49.570;6.060;2022-07-23T00:17:25;18.20;99.90
12700;DHT22;6414;49.570;6.060;2022-07-23T00:20:11;18.20;99.90
12700;DHT22;6414;49.570;6.060;2022-07-23T00:22:56;18.30;99.90
12700;DHT22;6414;49.570;6.060;2022-07-23T00:25:42;18.20;99.90
12700;DHT22;6414;49.570;6.060;2022-07-23T00:28:28;17.80;99.90
12700;DHT22;6414;49.570;6.060;2022-07-23T00:31:13;17.80;99.90
12700;DHT22;6414;49.570;6.060;2022-07-23T00:33:59;17.90;99.90
12700;DHT22;6414;49.570;6.060;2022-07-23T00:36:44;18.00;99.90
12700;DHT22;6414;49.570;6.060;2022-07-23T00:39:30;18.20;99.90
12700;DHT22;6414;49.570;6.060;2022-07-23T00:42:15;18.30;99.90
12700;DHT22;6414;49.570;6.060;2022-07-23T00:45:01;18.30;99.90
12700;DHT22;6414;49.570;6.060;2022-07-23T00:47:46;18.30;99.90
12700;DHT22;6414;49.570;6.060;2022-07-23T00:50:32;18.10;99.90
12700;DHT22;6414;49.570;6.060;2022-07-23T00:53:17;18.00;99.90
12700;DHT22;6414;49.570;6.060;2022-07-23T00:56:03;17.90;99.90
12700;DHT22;6414;49.570;6.060;2022-07-23T00:58:49;17.90;99.90
12700;DHT22;6414;49.570;6.060;2022-07-23T01:01:34;17.70;99.90
12700;DHT22;6414;49.570;6.060;2022-07-23T01:04:19;17.90;99.90
12700;DHT22;6414;49.570;6.060;2022-07-23T01:07:05;18.00;99.90
12700;DHT22;6414;49.570;6.060;2022-07-23T01:09:54;17.90;99.90
12700;DHT22;6414;49.570;6.060;2022-07-23T01:12:39;17.90;99.90
12700;DHT22;6414;49.570;6.060;2022-07-23T01:15:24;17.80;99.90
12700;DHT22;6414;49.570;6.060;2022-07-23T01:18:10;17.80;99.90
12700;DHT22;6414;49.570;6.060;2022-07-23T01:20:56;17.90;99.90
12700;DHT22;6414;49.570;6.060;2022-07-23T01:23:41;17.90;99.90
12700;DHT22;6414;49.570;6.060;2022-07-23T01:26:26;17.60;99.90
12700;DHT22;6414;49.570;6.060;2022-07-23T01:29:12;17.60;99.90
12700;DHT22;6414;49.570;6.060;2022-07-23T01:31:57;17.60;99.90
12700;DHT22;6414;49.570;6.060;2022-07-23T01:34:43;17.50;99.90
12700;DHT22;6414;49.570;6.060;2022-07-23T01:37:29;17.40;99.90
12700;DHT22;6414;49.570;6.060;2022-07-23T01:40:15;17.40;99.90
12700;DHT22;6414;49.570;6.060;2022-07-23T01:43:00;17.40;99.90
12700;DHT22;6414;49.570;6.060;2022-07-23T01:45:45;17.50;99.90
12700;DHT22;6414;49.570;6.060;2022-07-23T01:48:30;17.40;99.90
12700;DHT22;6414;49.570;6.060;2022-07-23T01:51:16;17.50;99.90
12700;DHT22;6414;49.570;6.060;2022-07-23T01:54:01;17.40;99.90
12700;DHT22;6414;49.570;6.060;2022-07-23T01:56:46;17.50;99.90
12700;DHT22;6414;49.570;6.060;2022-07-23T01:59:32;17.40;99.90
12700;DHT22;6414;49.570;6.060;2022-07-23T02:02:18;17.30;99.90
12700;DHT22;6414;49.570;6.060;2022-07-23T02:05:04;17.30;99.90
12700;DHT22;6414;49.570;6.060;2022-07-23T02:07:50;17.30;99.90
12700;DHT22;6414;49.570;6.060;2022-07-23T02:10:35;17.30;99.90
12700;DHT22;6414;49.570;6.060;2022-07-23T02:13:21;17.30;99.90
12700;DHT22;6414;49.570;6.060;2022-07-23T02:16:06;17.30;99.90
12700;DHT22;6414;49.570;6.060;2022-07-23T02:18:52;17.40;99.90
12700;DHT22;6414;49.570;6.060;2022-07-23T02:21:37;17.50;99.90
12700;DHT22;6414;49.570;6.060;2022-07-23T02:24:23;17.50;99.90
12700;DHT22;6414;49.570;6.060;2022-07-23T02:27:09;17.40;99.90
12700;DHT22;6414;49.570;6.060;2022-07-23T02:29:54;17.40;99.90
12700;DHT22;6414;49.570;6.060;2022-07-23T02:32:39;17.50;99.90
12700;DHT22;6414;49.570;6.060;2022-07-23T02:35:25;17.50;99.90
12700;DHT22;6414;49.570;6.060;2022-07-23T02:38:10;17.50;99.90
12700;DHT22;6414;49.570;6.060;2022-07-23T02:40:57;17.30;99.90
12700;DHT22;6414;49.570;6.060;2022-07-23T02:43:42;17.30;99.90
12700;DHT22;6414;49.570;6.060;2022-07-23T02:46:28;17.40;99.90
12700;DHT22;6414;49.570;6.060;2022-07-23T02:49:13;17.40;99.90
12700;DHT22;6414;49.570;6.060;2022-07-23T02:51:58;17.30;99.90
12700;DHT22;6414;49.570;6.060;2022-07-23T02:54:43;17.10;99.90
12700;DHT22;6414;49.570;6.060;2022-07-23T02:57:29;17.00;99.90
12700;DHT22;6414;49.570;6.060;2022-07-23T03:00:14;17.00;99.90
12700;DHT22;6414;49.570;6.060;2022-07-23T03:03:00;16.90;99.90
12700;DHT22;6414;49.570;6.060;2022-07-23T03:05:46;16.80;99.90
12700;DHT22;6414;49.570;6.060;2022-07-23T03:08:32;16.50;99.90
12700;DHT22;6414;49.570;6.060;2022-07-23T03:11:17;16.50;99.90
12700;DHT22;6414;49.570;6.060;2022-07-23T03:14:02;16.40;99.90
12700;DHT22;6414;49.570;6.060;2022-07-23T03:16:48;16.40;99.90
12700;DHT22;6414;49.570;6.060;2022-07-23T03:19:34;16.30;99.90
12700;DHT22;6414;49.570;6.060;2022-07-23T03:22:19;16.20;99.90
12700;DHT22;6414;49.570;6.060;2022-07-23T03:25:05;16.00;99.90
12700;DHT22;6414;49.570;6.060;2022-07-23T03:27:50;16.20;99.90
12700;DHT22;6414;49.570;6.060;2022-07-23T03:30:35;16.10;99.90
12700;DHT22;6414;49.570;6.060;2022-07-23T03:33:21;16.10;99.90
12700;DHT22;6414;49.570;6.060;2022-07-23T03:36:06;16.10;99.90
12700;DHT22;6414;49.570;6.060;2022-07-23T03:38:51;16.00;99.90
12700;DHT22;6414;49.570;6.060;2022-07-23T03:41:36;15.90;99.90
12700;DHT22;6414;49.570;6.060;2022-07-23T03:44:22;16.10;99.90
12700;DHT22;6414;49.570;6.060;2022-07-23T03:47:07;16.10;99.90
12700;DHT22;6414;49.570;6.060;2022-07-23T03:49:53;16.10;99.90
12700;DHT22;6414;49.570;6.060;2022-07-23T03:52:39;16.20;99.90
12700;DHT22;6414;49.570;6.060;2022-07-23T03:55:24;16.10;99.90
12700;DHT22;6414;49.570;6.060;2022-07-23T03:58:10;16.00;99.90
12700;DHT22;6414;49.570;6.060;2022-07-23T04:00:56;16.00;99.90
12700;DHT22;6414;49.570;6.060;2022-07-23T04:03:41;16.00;99.90
12700;DHT22;6414;49.570;6.060;2022-07-23T04:06:27;16.00;99.90
12700;DHT22;6414;49.570;6.060;2022-07-23T04:09:13;15.90;99.90
12700;DHT22;6414;49.570;6.060;2022-07-23T04:11:59;15.90;99.90
12700;DHT22;6414;49.570;6.060;2022-07-23T04:14:44;15.90;99.90
12700;DHT22;6414;49.570;6.060;2022-07-23T04:17:30;15.90;99.90
12700;DHT22;6414;49.570;6.060;2022-07-23T04:20:15;15.70;99.90
12700;DHT22;6414;49.570;6.060;2022-07-23T04:23:00;15.70;99.90
12700;DHT22;6414;49.570;6.060;2022-07-23T04:25:45;15.70;99.90
12700;DHT22;6414;49.570;6.060;2022-07-23T04:28:30;15.70;99.90
12700;DHT22;6414;49.570;6.060;2022-07-23T04:31:16;15.60;99.90
12700;DHT22;6414;49.570;6.060;2022-07-23T04:34:02;15.50;99.90
12700;DHT22;6414;49.570;6.060;2022-07-23T04:36:47;15.50;99.90
12700;DHT22;6414;49.570;6.060;2022-07-23T04:39:33;15.60;99.90
12700;DHT22;6414;49.570;6.060;2022-07-23T04:42:17;15.60;99.90
12700;DHT22;6414;49.570;6.060;2022-07-23T04:45:03;15.70;99.90
12700;DHT22;6414;49.570;6.060;2022-07-23T04:47:48;15.70;99.90
12700;DHT22;6414;49.570;6.060;2022-07-23T04:50:34;15.80;99.90
12700;DHT22;6414;49.570;6.060;2022-07-23T04:53:19;15.80;99.90
12700;DHT22;6414;49.570;6.060;2022-07-23T04:56:04;15.80;99.90
12700;DHT22;6414;49.570;6.060;2022-07-23T04:58:50;15.70;99.90
12700;DHT22;6414;49.570;6.060;2022-07-23T05:01:36;15.80;99.90
12700;DHT22;6414;49.570;6.060;2022-07-23T05:04:21;15.80;99.90
12700;DHT22;6414;49.570;6.060;2022-07-23T05:07:07;15.80;99.90
12700;DHT22;6414;49.570;6.060;2022-07-23T05:09:52;15.80;99.90
12700;DHT22;6414;49.570;6.060;2022-07-23T05:12:38;15.80;99.90
12700;DHT22;6414;49.570;6.060;2022-07-23T05:15:23;15.90;99.90
12700;DHT22;6414;49.570;6.060;2022-07-23T05:18:09;16.00;99.90
12700;DHT22;6414;49.570;6.060;2022-07-23T05:20:55;16.00;99.90
12700;DHT22;6414;49.570;6.060;2022-07-23T05:23:41;16.10;99.90
12700;DHT22;6414;49.570;6.060;2022-07-23T05:26:27;16.20;99.90
12700;DHT22;6414;49.570;6.060;2022-07-23T05:29:13;16.30;99.90
12700;DHT22;6414;49.570;6.060;2022-07-23T05:31:59;16.40;99.90
12700;DHT22;6414;49.570;6.060;2022-07-23T05:34:45;16.30;99.90
12700;DHT22;6414;49.570;6.060;2022-07-23T05:37:30;16.50;99.90
12700;DHT22;6414;49.570;6.060;2022-07-23T05:40:16;16.40;99.90
12700;DHT22;6414;49.570;6.060;2022-07-23T05:43:01;16.50;99.90
12700;DHT22;6414;49.570;6.060;2022-07-23T05:45:46;16.60;99.90
12700;DHT22;6414;49.570;6.060;2022-07-23T05:48:31;16.60;99.90
12700;DHT22;6414;49.570;6.060;2022-07-23T05:51:21;16.70;99.90
12700;DHT22;6414;49.570;6.060;2022-07-23T05:54:06;16.70;99.90
12700;DHT22;6414;49.570;6.060;2022-07-23T05:56:52;16.80;99.90
12700;DHT22;6414;49.570;6.060;2022-07-23T05:59:38;16.80;99.90
12700;DHT22;6414;49.570;6.060;2022-07-23T06:02:23;16.90;99.90
12700;DHT22;6414;49.570;6.060;2022-07-23T06:05:08;17.00;99.90
12700;DHT22;6414;49.570;6.060;2022-07-23T06:07:54;17.00;99.90
12700;DHT22;6414;49.570;6.060;2022-07-23T06:10:39;17.10;99.90
12700;DHT22;6414;49.570;6.060;2022-07-23T06:13:25;17.20;99.90
12700;DHT22;6414;49.570;6.060;2022-07-23T06:16:10;17.20;99.90
12700;DHT22;6414;49.570;6.060;2022-07-23T06:18:55;17.10;99.90
12700;DHT22;6414;49.570;6.060;2022-07-23T06:21:41;17.20;99.90
12700;DHT22;6414;49.570;6.060;2022-07-23T06:24:26;17.40;99.90
12700;DHT22;6414;49.570;6.060;2022-07-23T06:27:12;17.50;99.90
12700;DHT22;6414;49.570;6.060;2022-07-23T06:29:57;17.70;99.90
12700;DHT22;6414;49.570;6.060;2022-07-23T06:32:43;17.70;99.90
12700;DHT22;6414;49.570;6.060;2022-07-23T06:35:29;17.80;99.90
12700;DHT22;6414;49.570;6.060;2022-07-23T06:38:14;17.70;99.90
12700;DHT22;6414;49.570;6.060;2022-07-23T06:41:00;17.80;99.90
12700;DHT22;6414;49.570;6.060;2022-07-23T06:43:45;17.80;99.90
12700;DHT22;6414;49.570;6.060;2022-07-23T06:46:31;17.80;99.90
12700;DHT22;6414;49.570;6.060;2022-07-23T06:49:17;17.90;99.90
12700;DHT22;6414;49.570;6.060;2022-07-23T06:52:02;18.10;99.90
12700;DHT22;6414;49.570;6.060;2022-07-23T06:54:47;18.20;99.90
12700;DHT22;6414;49.570;6.060;2022-07-23T06:57:33;18.20;99.90
12700;DHT22;6414;49.570;6.060;2022-07-23T07:00:19;18.40;99.90
12700;DHT22;6414;49.570;6.060;2022-07-23T07:03:05;18.40;99.90
12700;DHT22;6414;49.570;6.060;2022-07-23T07:05:51;18.50;99.90
12700;DHT22;6414;49.570;6.060;2022-07-23T07:08:36;18.50;99.90
12700;DHT22;6414;49.570;6.060;2022-07-23T07:11:21;18.60;99.90
12700;DHT22;6414;49.570;6.060;2022-07-23T07:14:06;18.70;99.90
12700;DHT22;6414;49.570;6.060;2022-07-23T07:16:52;18.80;99.90
12700;DHT22;6414;49.570;6.060;2022-07-23T07:19:37;18.80;99.90
12700;DHT22;6414;49.570;6.060;2022-07-23T07:22:22;18.90;99.90
12700;DHT22;6414;49.570;6.060;2022-07-23T07:25:08;19.00;99.90
12700;DHT22;6414;49.570;6.060;2022-07-23T07:27:53;19.00;99.90
12700;DHT22;6414;49.570;6.060;2022-07-23T07:30:38;19.10;99.90
12700;DHT22;6414;49.570;6.060;2022-07-23T07:33:23;19.00;99.90
12700;DHT22;6414;49.570;6.060;2022-07-23T07:36:10;19.30;99.90
12700;DHT22;6414;49.570;6.060;2022-07-23T07:38:55;19.30;99.90
12700;DHT22;6414;49.570;6.060;2022-07-23T07:41:40;19.30;99.90
12700;DHT22;6414;49.570;6.060;2022-07-23T07:44:25;19.30;99.90
12700;DHT22;6414;49.570;6.060;2022-07-23T07:47:10;19.40;99.90
12700;DHT22;6414;49.570;6.060;2022-07-23T07:49:56;19.60;99.90
12700;DHT22;6414;49.570;6.060;2022-07-23T07:52:41;19.60;99.90
12700;DHT22;6414;49.570;6.060;2022-07-23T07:55:27;19.70;99.90
12700;DHT22;6414;49.570;6.060;2022-07-23T07:58:12;19.70;99.90
12700;DHT22;6414;49.570;6.060;2022-07-23T08:00:58;19.70;99.90
12700;DHT22;6414;49.570;6.060;2022-07-23T08:03:43;20.00;99.90
12700;DHT22;6414;49.570;6.060;2022-07-23T08:06:29;20.10;99.90
12700;DHT22;6414;49.570;6.060;2022-07-23T08:09:14;20.00;99.90
12700;DHT22;6414;49.570;6.060;2022-07-23T08:12:00;20.20;99.90
12700;DHT22;6414;49.570;6.060;2022-07-23T08:14:45;20.20;99.90
12700;DHT22;6414;49.570;6.060;2022-07-23T08:17:30;20.10;99.90
12700;DHT22;6414;49.570;6.060;2022-07-23T08:20:16;20.20;99.90
12700;DHT22;6414;49.570;6.060;2022-07-23T08:23:05;20.40;99.90
12700;DHT22;6414;49.570;6.060;2022-07-23T08:25:50;20.80;99.90
12700;DHT22;6414;49.570;6.060;2022-07-23T08:28:35;21.10;99.90
12700;DHT22;6414;49.570;6.060;2022-07-23T08:31:20;20.90;99.90
12700;DHT22;6414;49.570;6.060;2022-07-23T08:34:07;21.20;99.90
12700;DHT22;6414;49.570;6.060;2022-07-23T08:36:53;21.20;99.90
12700;DHT22;6414;49.570;6.060;2022-07-23T08:39:38;21.20;99.90
12700;DHT22;6414;49.570;6.060;2022-07-23T08:42:23;21.20;99.90
12700;DHT22;6414;49.570;6.060;2022-07-23T08:45:09;21.10;99.90
12700;DHT22;6414;49.570;6.060;2022-07-23T08:47:55;21.30;99.90
12700;DHT22;6414;49.570;6.060;2022-07-23T08:50:42;21.30;99.90
12700;DHT22;6414;49.570;6.060;2022-07-23T08:53:26;21.50;99.90
12700;DHT22;6414;49.570;6.060;2022-07-23T08:56:11;21.80;99.90
12700;DHT22;6414;49.570;6.060;2022-07-23T08:58:56;21.80;99.90
12700;DHT22;6414;49.570;6.060;2022-07-23T09:01:41;21.80;99.90
12700;DHT22;6414;49.570;6.060;2022-07-23T09:04:27;21.80;99.90
12700;DHT22;6414;49.570;6.060;2022-07-23T09:07:12;21.90;99.90
12700;DHT22;6414;49.570;6.060;2022-07-23T09:10:10;21.90;99.90
12700;DHT22;6414;49.570;6.060;2022-07-23T09:12:55;22.10;99.90
12700;DHT22;6414;49.570;6.060;2022-07-23T09:15:50;22.20;99.90
12700;DHT22;6414;49.570;6.060;2022-07-23T09:21:30;22.00;99.90
12700;DHT22;6414;49.570;6.060;2022-07-23T09:24:14;21.90;99.90
12700;DHT22;6414;49.570;6.060;2022-07-23T09:27:00;22.00;99.90
12700;DHT22;6414;49.570;6.060;2022-07-23T09:29:54;22.50;99.90
12700;DHT22;6414;49.570;6.060;2022-07-23T09:32:32;22.40;99.90
12700;DHT22;6414;49.570;6.060;2022-07-23T09:35:17;22.80;99.90
12700;DHT22;6414;49.570;6.060;2022-07-23T09:38:03;22.90;99.90
12700;DHT22;6414;49.570;6.060;2022-07-23T09:41:07;23.00;99.90
12700;DHT22;6414;49.570;6.060;2022-07-23T09:43:56;23.00;99.90
12700;DHT22;6414;49.570;6.060;2022-07-23T09:46:41;23.30;99.90
12700;DHT22;6414;49.570;6.060;2022-07-23T09:49:26;23.40;99.90
12700;DHT22;6414;49.570;6.060;2022-07-23T09:52:11;23.50;99.90
12700;DHT22;6414;49.570;6.060;2022-07-23T09:54:58;23.60;99.90
12700;DHT22;6414;49.570;6.060;2022-07-23T09:57:43;23.40;99.90
12700;DHT22;6414;49.570;6.060;2022-07-23T10:00:28;23.10;99.90
12700;DHT22;6414;49.570;6.060;2022-07-23T10:03:13;23.00;99.90
12700;DHT22;6414;49.570;6.060;2022-07-23T10:05:59;22.90;99.90
12700;DHT22;6414;49.570;6.060;2022-07-23T10:08:44;22.80;99.90
12700;DHT22;6414;49.570;6.060;2022-07-23T10:11:30;22.80;99.90
12700;DHT22;6414;49.570;6.060;2022-07-23T10:14:15;23.10;99.90
12700;DHT22;6414;49.570;6.060;2022-07-23T10:17:03;23.40;99.90
12700;DHT22;6414;49.570;6.060;2022-07-23T10:19:49;23.20;99.90
12700;DHT22;6414;49.570;6.060;2022-07-23T10:22:38;23.50;99.90
12700;DHT22;6414;49.570;6.060;2022-07-23T10:25:41;23.30;99.90
12700;DHT22;6414;49.570;6.060;2022-07-23T10:28:47;23.30;99.90
12700;DHT22;6414;49.570;6.060;2022-07-23T10:34:40;22.90;99.90
12700;DHT22;6414;49.570;6.060;2022-07-23T10:37:44;22.90;99.90
12700;DHT22;6414;49.570;6.060;2022-07-23T10:40:29;23.80;99.90
12700;DHT22;6414;49.570;6.060;2022-07-23T10:43:15;24.30;99.90
12700;DHT22;6414;49.570;6.060;2022-07-23T10:46:23;24.30;99.90
12700;DHT22;6414;49.570;6.060;2022-07-23T10:49:32;24.10;99.90
12700;DHT22;6414;49.570;6.060;2022-07-23T10:52:21;23.90;99.90
12700;DHT22;6414;49.570;6.060;2022-07-23T10:57:53;23.50;99.90
12700;DHT22;6414;49.570;6.060;2022-07-23T11:00:39;23.40;99.90
12700;DHT22;6414;49.570;6.060;2022-07-23T11:03:29;23.70;99.90
12700;DHT22;6414;49.570;6.060;2022-07-23T11:06:13;24.30;99.90
12700;DHT22;6414;49.570;6.060;2022-07-23T11:09:24;24.30;99.90
12700;DHT22;6414;49.570;6.060;2022-07-23T11:15:12;24.40;99.90
12700;DHT22;6414;49.570;6.060;2022-07-23T11:18:00;24.70;99.90
12700;DHT22;6414;49.570;6.060;2022-07-23T11:20:46;24.20;97.50
12700;DHT22;6414;49.570;6.060;2022-07-23T11:24:15;24.30;99.90
12700;DHT22;6414;49.570;6.060;2022-07-23T11:32:18;24.50;99.90
12700;DHT22;6414;49.570;6.060;2022-07-23T11:35:03;24.90;98.80
12700;DHT22;6414;49.570;6.060;2022-07-23T11:37:48;24.90;97.70
12700;DHT22;6414;49.570;6.060;2022-07-23T11:40:33;25.00;93.90
12700;DHT22;6414;49.570;6.060;2022-07-23T11:43:19;25.00;84.60
12700;DHT22;6414;49.570;6.060;2022-07-23T11:46:04;25.40;93.80
12700;DHT22;6414;49.570;6.060;2022-07-23T11:49:00;25.40;73.10
12700;DHT22;6414;49.570;6.060;2022-07-23T11:51:36;25.30;82.30
12700;DHT22;6414;49.570;6.060;2022-07-23T11:54:21;25.30;81.80
12700;DHT22;6414;49.570;6.060;2022-07-23T11:57:07;25.40;64.40
12700;DHT22;6414;49.570;6.060;2022-07-23T11:59:55;25.40;79.70
12700;DHT22;6414;49.570;6.060;2022-07-23T12:02:41;25.70;63.90
12700;DHT22;6414;49.570;6.060;2022-07-23T12:05:26;25.80;58.70
12700;DHT22;6414;49.570;6.060;2022-07-23T12:08:11;25.30;66.30
12700;DHT22;6414;49.570;6.060;2022-07-23T12:10:56;25.00;88.70
12700;DHT22;6414;49.570;6.060;2022-07-23T12:13:42;24.60;82.80
12700;DHT22;6414;49.570;6.060;2022-07-23T12:16:28;24.80;94.70
12700;DHT22;6414;49.570;6.060;2022-07-23T12:19:14;24.70;94.50
12700;DHT22;6414;49.570;6.060;2022-07-23T12:21:59;24.50;92.80
12700;DHT22;6414;49.570;6.060;2022-07-23T12:25:00;24.30;97.70
12700;DHT22;6414;49.570;6.060;2022-07-23T12:27:45;24.20;94.00
12700;DHT22;6414;49.570;6.060;2022-07-23T12:30:32;24.20;97.20
12700;DHT22;6414;49.570;6.060;2022-07-23T12:33:37;24.10;96.70
12700;DHT22;6414;49.570;6.060;2022-07-23T12:36:20;24.30;92.60
12700;DHT22;6414;49.570;6.060;2022-07-23T12:39:05;24.40;85.40
12700;DHT22;6414;49.570;6.060;2022-07-23T12:41:51;24.70;85.20
12700;DHT22;6414;49.570;6.060;2022-07-23T12:44:36;25.20;79.50
12700;DHT22;6414;49.570;6.060;2022-07-23T12:47:21;25.60;65.40
12700;DHT22;6414;49.570;6.060;2022-07-23T12:50:07;25.70;47.40
12700;DHT22;6414;49.570;6.060;2022-07-23T12:53:00;25.50;45.70
12700;DHT22;6414;49.570;6.060;2022-07-23T12:55:38;25.40;50.30
12700;DHT22;6414;49.570;6.060;2022-07-23T12:58:23;25.80;48.50
12700;DHT22;6414;49.570;6.060;2022-07-23T13:01:09;25.90;49.40
12700;DHT22;6414;49.570;6.060;2022-07-23T13:06:46;25.90;44.80
12700;DHT22;6414;49.570;6.060;2022-07-23T13:09:32;25.60;52.80
12700;DHT22;6414;49.570;6.060;2022-07-23T13:12:16;25.60;52.70
12700;DHT22;6414;49.570;6.060;2022-07-23T13:15:02;25.80;43.20
12700;DHT22;6414;49.570;6.060;2022-07-23T13:17:48;26.00;47.90
12700;DHT22;6414;49.570;6.060;2022-07-23T13:20:34;26.00;47.80
12700;DHT22;6414;49.570;6.060;2022-07-23T13:23:19;26.00;46.50
12700;DHT22;6414;49.570;6.060;2022-07-23T13:26:04;26.40;45.10
12700;DHT22;6414;49.570;6.060;2022-07-23T13:28:50;26.10;46.90
12700;DHT22;6414;49.570;6.060;2022-07-23T13:31:38;26.40;44.10
12700;DHT22;6414;49.570;6.060;2022-07-23T13:34:23;26.10;36.30
12700;DHT22;6414;49.570;6.060;2022-07-23T13:37:08;26.10;37.40
12700;DHT22;6414;49.570;6.060;2022-07-23T13:39:54;26.20;40.20
12700;DHT22;6414;49.570;6.060;2022-07-23T13:42:40;26.40;41.70
12700;DHT22;6414;49.570;6.060;2022-07-23T13:45:25;26.50;31.40
12700;DHT22;6414;49.570;6.060;2022-07-23T13:48:11;26.50;31.00
12700;DHT22;6414;49.570;6.060;2022-07-23T13:50:56;26.60;29.00
12700;DHT22;6414;49.570;6.060;2022-07-23T13:53:41;26.50;26.60
12700;DHT22;6414;49.570;6.060;2022-07-23T13:56:26;26.40;30.90
12700;DHT22;6414;49.570;6.060;2022-07-23T13:59:12;26.60;22.60
12700;DHT22;6414;49.570;6.060;2022-07-23T14:01:57;26.70;31.00
12700;DHT22;6414;49.570;6.060;2022-07-23T14:04:43;27.00;26.90
12700;DHT22;6414;49.570;6.060;2022-07-23T14:07:28;27.00;26.70
12700;DHT22;6414;49.570;6.060;2022-07-23T14:10:13;26.90;26.10
12700;DHT22;6414;49.570;6.060;2022-07-23T14:12:58;27.00;27.30
12700;DHT22;6414;49.570;6.060;2022-07-23T14:15:44;27.10;25.00
12700;DHT22;6414;49.570;6.060;2022-07-23T14:18:30;27.40;26.40
12700;DHT22;6414;49.570;6.060;2022-07-23T14:21:15;27.30;25.10
12700;DHT22;6414;49.570;6.060;2022-07-23T14:24:00;27.00;27.80
12700;DHT22;6414;49.570;6.060;2022-07-23T14:26:46;26.80;29.20
12700;DHT22;6414;49.570;6.060;2022-07-23T14:29:31;26.20;22.60
12700;DHT22;6414;49.570;6.060;2022-07-23T14:32:16;26.10;22.30
12700;DHT22;6414;49.570;6.060;2022-07-23T14:35:02;26.50;29.40
12700;DHT22;6414;49.570;6.060;2022-07-23T14:37:47;27.00;27.70
12700;DHT22;6414;49.570;6.060;2022-07-23T14:40:32;26.90;18.10
12700;DHT22;6414;49.570;6.060;2022-07-23T14:43:18;27.30;26.40
12700;DHT22;6414;49.570;6.060;2022-07-23T14:46:03;27.20;24.00
12700;DHT22;6414;49.570;6.060;2022-07-23T14:48:49;27.40;22.70
12700;DHT22;6414;49.570;6.060;2022-07-23T14:51:34;27.40;22.70
12700;DHT22;6414;49.570;6.060;2022-07-23T14:54:20;27.20;21.40
12700;DHT22;6414;49.570;6.060;2022-07-23T14:57:06;27.10;24.30
12700;DHT22;6414;49.570;6.060;2022-07-23T14:59:51;26.70;26.60
12700;DHT22;6414;49.570;6.060;2022-07-23T15:02:37;26.80;25.20
12700;DHT22;6414;49.570;6.060;2022-07-23T15:05:22;26.40;23.80
12700;DHT22;6414;49.570;6.060;2022-07-23T15:08:07;26.30;21.80
12700;DHT22;6414;49.570;6.060;2022-07-23T15:10:53;26.10;22.00
12700;DHT22;6414;49.570;6.060;2022-07-23T15:13:38;26.50;18.80
12700;DHT22;6414;49.570;6.060;2022-07-23T15:16:23;26.80;18.80
12700;DHT22;6414;49.570;6.060;2022-07-23T15:19:08;26.60;17.50
12700;DHT22;6414;49.570;6.060;2022-07-23T15:21:54;26.80;16.90
12700;DHT22;6414;49.570;6.060;2022-07-23T15:24:39;27.00;19.50
12700;DHT22;6414;49.570;6.060;2022-07-23T15:27:26;27.20;24.00
12700;DHT22;6414;49.570;6.060;2022-07-23T15:30:11;27.20;24.00
12700;DHT22;6414;49.570;6.060;2022-07-23T15:32:57;27.30;24.40
12700;DHT22;6414;49.570;6.060;2022-07-23T15:35:43;27.20;27.00
12700;DHT22;6414;49.570;6.060;2022-07-23T15:38:29;27.20;27.00
12700;DHT22;6414;49.570;6.060;2022-07-23T15:41:14;27.00;25.60
12700;DHT22;6414;49.570;6.060;2022-07-23T15:44:00;26.90;21.20
12700;DHT22;6414;49.570;6.060;2022-07-23T15:46:46;27.10;24.70
12700;DHT22;6414;49.570;6.060;2022-07-23T15:49:31;26.30;18.60
12700;DHT22;6414;49.570;6.060;2022-07-23T15:52:17;27.10;28.90
12700;DHT22;6414;49.570;6.060;2022-07-23T15:55:02;27.00;28.60
12700;DHT22;6414;49.570;6.060;2022-07-23T15:57:47;26.80;27.00
12700;DHT22;6414;49.570;6.060;2022-07-23T16:00:33;27.00;24.60
12700;DHT22;6414;49.570;6.060;2022-07-23T16:03:18;27.20;27.80
12700;DHT22;6414;49.570;6.060;2022-07-23T16:06:05;27.00;26.40
12700;DHT22;6414;49.570;6.060;2022-07-23T16:08:49;26.70;26.60
12700;DHT22;6414;49.570;6.060;2022-07-23T16:11:35;26.70;26.60
12700;DHT22;6414;49.570;6.060;2022-07-23T16:14:20;26.80;17.80
12700;DHT22;6414;49.570;6.060;2022-07-23T16:17:05;26.60;13.20
12700;DHT22;6414;49.570;6.060;2022-07-23T16:19:50;26.50;12.70
12700;DHT22;6414;49.570;6.060;2022-07-23T16:22:36;26.50;20.20
12700;DHT22;6414;49.570;6.060;2022-07-23T16:25:22;26.50;20.10
12700;DHT22;6414;49.570;6.060;2022-07-23T16:28:08;26.40;20.10
12700;DHT22;6414;49.570;6.060;2022-07-23T16:30:53;26.00;19.30
12700;DHT22;6414;49.570;6.060;2022-07-23T16:33:39;25.90;23.10
12700;DHT22;6414;49.570;6.060;2022-07-23T16:36:25;25.70;19.30
12700;DHT22;6414;49.570;6.060;2022-07-23T16:39:11;25.60;19.40
12700;DHT22;6414;49.570;6.060;2022-07-23T16:41:57;26.50;19.80
12700;DHT22;6414;49.570;6.060;2022-07-23T16:44:42;26.50;19.80
12700;DHT22;6414;49.570;6.060;2022-07-23T16:47:27;26.50;18.30
12700;DHT22;6414;49.570;6.060;2022-07-23T16:50:13;26.50;21.40
12700;DHT22;6414;49.570;6.060;2022-07-23T16:52:59;26.70;22.30
12700;DHT22;6414;49.570;6.060;2022-07-23T16:55:45;26.70;22.30
12700;DHT22;6414;49.570;6.060;2022-07-23T16:58:30;26.60;22.50
12700;DHT22;6414;49.570;6.060;2022-07-23T17:01:15;26.40;18.00
12700;DHT22;6414;49.570;6.060;2022-07-23T17:04:01;26.20;22.00
12700;DHT22;6414;49.570;6.060;2022-07-23T17:06:46;26.50;21.30
12700;DHT22;6414;49.570;6.060;2022-07-23T17:09:32;26.50;18.40
12700;DHT22;6414;49.570;6.060;2022-07-23T17:12:17;26.30;17.50
12700;DHT22;6414;49.570;6.060;2022-07-23T17:15:03;26.20;16.60
12700;DHT22;6414;49.570;6.060;2022-07-23T17:17:48;26.20;19.40
12700;DHT22;6414;49.570;6.060;2022-07-23T17:20:34;26.20;17.40
12700;DHT22;6414;49.570;6.060;2022-07-23T17:23:20;26.20;16.20
12700;DHT22;6414;49.570;6.060;2022-07-23T17:26:05;26.10;15.00
12700;DHT22;6414;49.570;6.060;2022-07-23T17:28:50;25.90;16.00
12700;DHT22;6414;49.570;6.060;2022-07-23T17:31:37;25.80;20.90
12700;DHT22;6414;49.570;6.060;2022-07-23T17:34:23;25.80;20.20
12700;DHT22;6414;49.570;6.060;2022-07-23T17:37:09;25.60;17.40
12700;DHT22;6414;49.570;6.060;2022-07-23T17:39:55;25.40;14.70
12700;DHT22;6414;49.570;6.060;2022-07-23T17:42:40;25.40;14.60
12700;DHT22;6414;49.570;6.060;2022-07-23T17:45:26;25.50;17.50
12700;DHT22;6414;49.570;6.060;2022-07-23T17:48:10;25.50;19.90
12700;DHT22;6414;49.570;6.060;2022-07-23T17:50:56;25.40;15.20
12700;DHT22;6414;49.570;6.060;2022-07-23T17:53:41;25.30;16.00
12700;DHT22;6414;49.570;6.060;2022-07-23T17:56:27;25.20;13.30
12700;DHT22;6414;49.570;6.060;2022-07-23T17:59:13;25.10;13.70
12700;DHT22;6414;49.570;6.060;2022-07-23T18:01:59;25.10;13.50
12700;DHT22;6414;49.570;6.060;2022-07-23T18:04:45;25.00;18.10